createdAt,value
2018-05-02T00:00:39.474Z,1.20
2018-05-02T00:03:06.142Z,1.20
2018-05-02T00:05:32.870Z,1.20
2018-05-02T00:07:59.565Z,1.10
2018-05-02T00:10:26.290Z,1.10
2018-05-02T00:12:53.047Z,1.10
2018-05-02T00:15:19.918Z,1.10
2018-05-02T00:17:46.630Z,1.00
2018-05-02T00:20:13.299Z,1.00
2018-05-02T00:22:39.988Z,1.00
2018-05-02T00:25:06.747Z,1.00
2018-05-02T00:27:33.461Z,1.00
2018-05-02T00:30:00.870Z,1.00
2018-05-02T00:32:27.613Z,0.90
2018-05-02T00:34:54.298Z,0.90
2018-05-02T00:37:21.060Z,1.00
2018-05-02T00:39:47.759Z,0.90
2018-05-02T00:42:14.446Z,0.80
2018-05-02T00:44:41.691Z,0.80
2018-05-02T00:47:08.345Z,0.80
2018-05-02T00:49:35.034Z,0.70
2018-05-02T00:52:01.809Z,0.70
2018-05-02T00:54:28.502Z,0.70
2018-05-02T00:56:55.289Z,0.60
2018-05-02T00:59:21.905Z,0.60
2018-05-02T01:01:48.537Z,0.60
2018-05-02T01:04:15.222Z,0.60
2018-05-02T01:06:41.868Z,0.50
2018-05-02T01:09:08.680Z,0.50
2018-05-02T01:11:35.420Z,0.50
2018-05-02T01:14:02.125Z,0.50
2018-05-02T01:16:28.798Z,0.50
2018-05-02T01:18:55.558Z,0.50
2018-05-02T01:21:22.215Z,0.50
2018-05-02T01:23:48.874Z,0.50
2018-05-02T01:26:16.317Z,0.40
2018-05-02T01:28:42.998Z,0.40
2018-05-02T01:31:09.880Z,0.40
2018-05-02T01:33:36.565Z,0.40
2018-05-02T01:36:03.958Z,0.40
2018-05-02T01:38:30.854Z,0.40
2018-05-02T01:40:58.444Z,0.40
2018-05-02T01:43:25.155Z,0.40
2018-05-02T01:45:52.592Z,0.50
2018-05-02T01:48:19.367Z,0.40
2018-05-02T01:50:46.126Z,0.50
2018-05-02T01:53:12.865Z,0.50
2018-05-02T01:55:39.539Z,0.50
2018-05-02T01:58:06.316Z,0.40
2018-05-02T02:00:33.055Z,0.40
2018-05-02T02:03:00.483Z,0.30
2018-05-02T02:05:27.474Z,0.30
2018-05-02T02:07:54.161Z,0.20
2018-05-02T02:10:21.680Z,0.20
2018-05-02T02:12:48.354Z,0.10
2018-05-02T02:15:15.802Z,0.10
2018-05-02T02:17:42.923Z,0.10
2018-05-02T02:20:09.562Z,0.10
2018-05-02T02:22:36.216Z,0.10
2018-05-02T02:25:03.006Z,0.10
2018-05-02T02:27:30.393Z,0.10
2018-05-02T02:29:57.103Z,0.10
2018-05-02T02:32:23.779Z,0.10
2018-05-02T02:34:50.455Z,0.10
2018-05-02T02:37:17.140Z,0.10
2018-05-02T02:39:43.822Z,0.10
2018-05-02T02:42:10.513Z,0.00
2018-05-02T02:44:37.194Z,0.00
2018-05-02T02:47:03.851Z,0.10
2018-05-02T02:49:30.646Z,0.10
2018-05-02T02:51:57.417Z,0.10
2018-05-02T02:54:24.064Z,0.10
2018-05-02T02:56:50.760Z,0.00
2018-05-02T02:59:17.442Z,0.00
2018-05-02T03:01:44.247Z,-0.10
2018-05-02T03:04:10.887Z,-0.10
2018-05-02T03:06:37.614Z,-0.10
2018-05-02T03:09:04.361Z,-0.10
2018-05-02T03:11:31.049Z,-0.10
2018-05-02T03:13:57.751Z,-0.10
2018-05-02T03:16:24.504Z,-0.20
2018-05-02T03:18:51.216Z,-0.20
2018-05-02T03:21:17.906Z,-0.20
2018-05-02T03:23:44.566Z,-0.20
2018-05-02T03:26:11.276Z,-0.20
2018-05-02T03:28:37.927Z,-0.20
2018-05-02T03:31:05.761Z,-0.20
2018-05-02T03:33:32.449Z,-0.20
2018-05-02T03:35:59.217Z,-0.20
2018-05-02T03:38:26.394Z,-0.20
2018-05-02T03:40:53.065Z,-0.30
2018-05-02T03:43:20.465Z,-0.30
2018-05-02T03:45:47.304Z,-0.30
2018-05-02T03:48:13.995Z,-0.30
2018-05-02T03:50:40.708Z,-0.30
2018-05-02T03:53:07.368Z,-0.30
2018-05-02T03:55:35.033Z,-0.30
2018-05-02T03:58:01.692Z,-0.30
2018-05-02T04:00:41.463Z,-0.20
2018-05-02T04:03:20.827Z,-0.20
2018-05-02T04:06:00.502Z,-0.20
2018-05-02T04:08:27.349Z,-0.20
2018-05-02T04:10:54.096Z,-0.10
2018-05-02T04:13:21.547Z,0.00
2018-05-02T04:15:49.111Z,0.00
2018-05-02T04:18:16.562Z,0.10
2018-05-02T04:20:43.337Z,0.10
2018-05-02T04:23:10.018Z,0.10
2018-05-02T04:25:36.684Z,0.10
2018-05-02T04:28:03.790Z,0.10
2018-05-02T04:30:30.608Z,0.20
2018-05-02T04:32:57.248Z,0.20
2018-05-02T04:35:23.975Z,0.30
2018-05-02T04:37:50.646Z,0.30
2018-05-02T04:40:17.316Z,0.30
2018-05-02T04:42:43.949Z,0.40
2018-05-02T04:45:10.779Z,0.40
2018-05-02T04:47:37.419Z,0.50
2018-05-02T04:50:04.056Z,0.50
2018-05-02T04:52:31.399Z,0.70
2018-05-02T04:54:58.106Z,0.80
2018-05-02T04:57:24.785Z,0.90
2018-05-02T04:59:51.435Z,1.00
2018-05-02T05:02:18.143Z,1.10
2018-05-02T05:04:44.822Z,1.20
2018-05-02T05:07:11.466Z,1.30
2018-05-02T05:09:38.167Z,1.40
2018-05-02T05:12:04.821Z,1.50
2018-05-02T05:14:31.513Z,1.60
2018-05-02T05:16:58.443Z,1.80
2018-05-02T05:19:25.089Z,2.00
2018-05-02T05:21:51.730Z,2.30
2018-05-02T05:24:18.430Z,2.70
2018-05-02T05:26:45.832Z,3.50
2018-05-02T05:29:12.494Z,3.50
2018-05-02T05:31:39.969Z,4.50
2018-05-02T05:34:06.687Z,4.50
2018-05-02T05:36:33.342Z,5.00
2018-05-02T05:39:00.139Z,5.60
2018-05-02T05:41:26.818Z,6.20
2018-05-02T05:43:53.507Z,6.80
2018-05-02T05:46:20.230Z,7.30
2018-05-02T05:48:46.876Z,7.90
2018-05-02T05:51:13.539Z,8.40
2018-05-02T05:53:40.292Z,8.80
2018-05-02T05:56:06.930Z,9.30
2018-05-02T05:58:33.596Z,9.70
2018-05-02T06:01:01.206Z,10.50
2018-05-02T06:03:27.899Z,10.50
2018-05-02T06:05:55.396Z,11.30
2018-05-02T06:08:22.146Z,11.30
2018-05-02T06:10:48.831Z,11.70
2018-05-02T06:13:16.547Z,12.10
2018-05-02T06:15:43.390Z,12.50
2018-05-02T06:18:10.567Z,12.90
2018-05-02T06:20:37.275Z,13.20
2018-05-02T06:23:03.981Z,13.60
2018-05-02T06:25:30.721Z,13.90
2018-05-02T06:27:57.419Z,14.20
2018-05-02T06:30:24.119Z,14.50
2018-05-02T06:32:50.876Z,14.70
2018-05-02T06:35:17.577Z,14.90
2018-05-02T06:37:45.019Z,15.50
2018-05-02T06:40:12.458Z,15.70
2018-05-02T06:42:39.131Z,15.60
2018-05-02T06:45:06.553Z,15.90
2018-05-02T06:47:33.673Z,15.90
2018-05-02T06:50:00.348Z,16.10
2018-05-02T06:52:26.991Z,16.00
2018-05-02T06:54:53.786Z,16.30
2018-05-02T06:57:20.458Z,16.30
2018-05-02T06:59:47.268Z,16.60
2018-05-02T07:02:14.007Z,16.60
2018-05-02T07:04:40.706Z,16.60
2018-05-02T07:07:08.259Z,16.90
2018-05-02T07:09:35.016Z,16.90
2018-05-02T07:12:02.431Z,17.00
2018-05-02T07:14:29.087Z,17.00
2018-05-02T07:16:55.775Z,17.20
2018-05-02T07:19:22.463Z,17.40
2018-05-02T07:21:49.139Z,17.50
2018-05-02T07:24:16.815Z,17.60
2018-05-02T07:26:43.460Z,17.60
2018-05-02T07:29:10.102Z,17.70
2018-05-02T07:31:36.795Z,17.80
2018-05-02T07:34:04.254Z,18.20
2018-05-02T07:36:31.031Z,18.20
2018-05-02T07:38:57.703Z,18.50
2018-05-02T07:41:24.380Z,18.60
2018-05-02T07:43:51.788Z,18.70
2018-05-02T07:46:18.457Z,18.70
2018-05-02T07:48:45.143Z,18.90
2018-05-02T07:51:12.223Z,19.00
2018-05-02T07:53:38.843Z,18.90
2018-05-02T07:56:05.513Z,18.90
2018-05-02T07:58:32.257Z,19.20
2018-05-02T08:00:59.693Z,19.60
2018-05-02T08:03:26.346Z,19.60
2018-05-02T08:05:53.144Z,19.70
2018-05-02T08:08:19.790Z,19.80
2018-05-02T08:10:47.243Z,19.80
2018-05-02T08:13:13.954Z,19.80
2018-05-02T08:15:40.604Z,19.90
2018-05-02T08:18:07.275Z,20.00
2018-05-02T08:20:33.961Z,20.00
2018-05-02T08:23:01.781Z,20.00
2018-05-02T08:25:28.419Z,20.00
2018-05-02T08:27:55.076Z,19.90
2018-05-02T08:30:21.901Z,19.80
2018-05-02T08:32:48.638Z,19.60
2018-05-02T08:35:15.264Z,19.70
2018-05-02T08:37:42.422Z,20.00
2018-05-02T08:40:09.056Z,20.00
2018-05-02T08:42:35.709Z,19.90
2018-05-02T08:45:02.452Z,19.80
2018-05-02T08:47:29.140Z,19.70
2018-05-02T08:49:55.905Z,20.00
2018-05-02T08:52:22.519Z,20.00
2018-05-02T08:54:49.184Z,19.80
2018-05-02T08:57:15.862Z,19.50
2018-05-02T08:59:42.508Z,19.00
2018-05-02T09:02:09.907Z,18.70
2018-05-02T09:04:36.545Z,18.60
2018-05-02T09:07:03.260Z,18.90
2018-05-02T09:09:29.904Z,19.20
2018-05-02T09:11:56.555Z,19.50
2018-05-02T09:14:23.215Z,19.40
2018-05-02T09:16:50.642Z,18.90
2018-05-02T09:19:17.344Z,18.90
2018-05-02T09:21:44.829Z,18.60
2018-05-02T09:24:11.559Z,18.60
2018-05-02T09:26:38.256Z,18.40
2018-05-02T09:29:04.955Z,18.60
2018-05-02T09:31:31.625Z,18.80
2018-05-02T09:33:58.636Z,19.20
2018-05-02T09:36:26.820Z,19.50
2018-05-02T09:38:53.475Z,19.50
2018-05-02T09:41:20.148Z,19.70
2018-05-02T09:43:46.869Z,19.70
2018-05-02T09:46:13.511Z,20.00
2018-05-02T09:48:40.160Z,20.00
2018-05-02T09:51:06.849Z,19.80
2018-05-02T09:53:33.542Z,19.60
2018-05-02T09:56:00.402Z,19.70
2018-05-02T09:58:27.796Z,19.40
2018-05-02T10:00:54.462Z,19.40
2018-05-02T10:03:21.187Z,19.20
2018-05-02T10:05:47.852Z,19.30
2018-05-02T10:08:14.577Z,19.60
2018-05-02T10:10:41.230Z,19.90
2018-05-02T10:13:08.684Z,20.10
2018-05-02T10:15:35.399Z,20.00
2018-05-02T10:18:02.043Z,20.10
2018-05-02T10:20:28.690Z,20.00
2018-05-02T10:22:55.539Z,20.00
2018-05-02T10:25:22.234Z,20.10
2018-05-02T10:27:48.918Z,20.10
2018-05-02T10:30:15.614Z,20.20
2018-05-02T10:32:42.252Z,19.90
2018-05-02T10:35:09.035Z,20.10
2018-05-02T10:37:35.743Z,20.20
2018-05-02T10:40:02.475Z,20.20
2018-05-02T10:42:29.151Z,20.40
2018-05-02T10:44:56.696Z,20.40
2018-05-02T10:47:23.364Z,20.40
2018-05-02T10:49:50.775Z,20.30
2018-05-02T10:52:17.524Z,20.30
2018-05-02T10:54:44.200Z,20.10
2018-05-02T10:57:10.935Z,20.00
2018-05-02T10:59:37.628Z,19.80
2018-05-02T11:02:04.278Z,19.70
2018-05-02T11:04:31.774Z,19.60
2018-05-02T11:06:58.437Z,19.60
2018-05-02T11:09:25.090Z,19.50
2018-05-02T11:11:51.800Z,19.70
2018-05-02T11:14:18.526Z,20.00
2018-05-02T11:16:45.955Z,20.20
2018-05-02T11:19:13.423Z,20.00
2018-05-02T11:21:40.092Z,20.00
2018-05-02T11:24:07.494Z,20.10
2018-05-02T11:26:34.201Z,20.10
2018-05-02T11:29:00.841Z,20.20
2018-05-02T11:31:27.505Z,20.20
2018-05-02T11:33:54.187Z,20.40
2018-05-02T11:36:21.578Z,20.80
2018-05-02T11:38:48.270Z,20.80
2018-05-02T11:41:16.102Z,21.10
2018-05-02T11:43:42.750Z,21.10
2018-05-02T11:46:09.491Z,21.00
2018-05-02T11:48:36.163Z,21.10
2018-05-02T11:51:02.933Z,20.90
2018-05-02T11:53:29.603Z,20.80
2018-05-02T11:55:56.268Z,20.90
2018-05-02T11:58:22.978Z,20.90
2018-05-02T12:00:50.140Z,20.80
2018-05-02T12:03:16.816Z,21.00
2018-05-02T12:05:44.262Z,21.40
2018-05-02T12:08:11.736Z,21.50
2018-05-02T12:10:38.425Z,21.50
2018-05-02T12:13:05.078Z,21.50
2018-05-02T12:15:31.744Z,21.60
2018-05-02T12:17:59.143Z,21.90
2018-05-02T12:20:25.963Z,21.90
2018-05-02T12:22:52.598Z,21.70
2018-05-02T12:25:19.338Z,21.70
2018-05-02T12:27:46.171Z,21.60
2018-05-02T12:30:12.871Z,21.70
2018-05-02T12:32:39.548Z,21.80
2018-05-02T12:35:06.206Z,21.60
2018-05-02T12:37:32.925Z,21.50
2018-05-02T12:40:00.318Z,21.60
2018-05-02T12:42:26.931Z,21.60
2018-05-02T12:44:53.605Z,21.70
2018-05-02T12:47:20.369Z,21.60
2018-05-02T12:49:46.998Z,21.30
2018-05-02T12:52:13.661Z,21.20
2018-05-02T12:54:40.492Z,21.10
2018-05-02T12:57:07.939Z,21.10
2018-05-02T12:59:34.568Z,21.00
2018-05-02T13:02:01.263Z,21.10
2018-05-02T13:04:27.976Z,21.20
2018-05-02T13:06:55.381Z,21.10
2018-05-02T13:09:22.014Z,21.00
2018-05-02T13:11:48.694Z,20.90
2018-05-02T13:14:16.179Z,21.10
2018-05-02T13:16:42.938Z,21.10
2018-05-02T13:19:09.574Z,21.10
2018-05-02T13:21:36.365Z,21.00
2018-05-02T13:24:02.990Z,20.90
2018-05-02T13:26:29.641Z,20.90
2018-05-02T13:28:56.336Z,20.50
2018-05-02T13:31:22.955Z,20.30
2018-05-02T13:33:49.630Z,20.40
2018-05-02T13:36:16.257Z,20.40
2018-05-02T13:38:42.940Z,20.40
2018-05-02T13:41:10.343Z,20.20
2018-05-02T13:43:37.029Z,20.20
2018-05-02T13:46:04.584Z,20.20
2018-05-02T13:48:31.226Z,20.20
2018-05-02T13:50:58.659Z,20.40
2018-05-02T13:53:26.362Z,20.40
2018-05-02T13:55:53.087Z,20.40
2018-05-02T13:58:20.527Z,20.70
2018-05-02T14:00:47.176Z,20.70
2018-05-02T14:03:13.854Z,20.70
2018-05-02T14:05:40.523Z,20.80
2018-05-02T14:08:07.183Z,20.80
2018-05-02T14:10:33.825Z,20.70
2018-05-02T14:13:01.293Z,20.60
2018-05-02T14:15:28.696Z,20.40
2018-05-02T14:17:55.341Z,20.30
2018-05-02T14:20:22.022Z,20.20
2018-05-02T14:22:49.428Z,20.10
2018-05-02T14:25:16.225Z,20.10
2018-05-02T14:27:42.929Z,20.00
2018-05-02T14:30:09.630Z,20.10
2018-05-02T14:32:36.276Z,20.00
2018-05-02T14:35:03.035Z,20.00
2018-05-02T14:37:29.748Z,19.90
2018-05-02T14:39:56.430Z,20.10
2018-05-02T14:42:23.094Z,20.10
2018-05-02T14:44:49.795Z,20.20
2018-05-02T14:47:16.501Z,20.20
2018-05-02T14:49:43.135Z,20.20
2018-05-02T14:52:09.891Z,20.00
2018-05-02T14:54:36.656Z,19.90
2018-05-02T14:57:03.332Z,20.00
2018-05-02T14:59:30.094Z,20.00
2018-05-02T15:01:56.787Z,19.80
2018-05-02T15:04:24.208Z,19.50
2018-05-02T15:06:51.034Z,19.40
2018-05-02T15:09:17.739Z,19.40
2018-05-02T15:11:45.184Z,19.40
2018-05-02T15:14:11.874Z,19.40
2018-05-02T15:16:38.658Z,19.40
2018-05-02T15:19:05.316Z,19.50
2018-05-02T15:21:32.720Z,19.40
2018-05-02T15:23:59.542Z,19.40
2018-05-02T15:26:26.409Z,19.30
2018-05-02T15:28:53.077Z,19.20
2018-05-02T15:31:19.726Z,19.10
2018-05-02T15:33:46.393Z,19.00
2018-05-02T15:36:13.037Z,18.90
2018-05-02T15:38:39.719Z,18.90
2018-05-02T15:41:06.420Z,18.90
2018-05-02T15:43:33.227Z,18.80
2018-05-02T15:46:00.687Z,18.70
2018-05-02T15:48:28.064Z,18.50
2018-05-02T15:50:54.746Z,18.50
2018-05-02T15:53:21.415Z,18.40
2018-05-02T15:55:49.179Z,18.50
2018-05-02T15:58:16.793Z,18.50
2018-05-02T16:00:43.406Z,18.50
2018-05-02T16:03:10.066Z,18.60
2018-05-02T16:05:36.756Z,18.60
2018-05-02T16:08:04.178Z,18.60
2018-05-02T16:10:30.874Z,18.60
2018-05-02T16:12:57.548Z,18.60
2018-05-02T16:15:24.213Z,18.40
2018-05-02T16:17:51.119Z,18.30
2018-05-02T16:20:17.786Z,18.30
2018-05-02T16:22:45.296Z,18.20
2018-05-02T16:25:11.972Z,18.10
2018-05-02T16:27:38.722Z,18.10
2018-05-02T16:30:05.854Z,18.00
2018-05-02T16:32:32.514Z,18.00
2018-05-02T16:34:59.167Z,17.80
2018-05-02T16:37:26.795Z,17.70
2018-05-02T16:39:53.453Z,17.60
2018-05-02T16:42:20.098Z,17.60
2018-05-02T16:44:46.873Z,17.60
2018-05-02T16:47:13.589Z,17.60
2018-05-02T16:49:40.300Z,17.70
2018-05-02T16:52:06.950Z,17.60
2018-05-02T16:54:33.620Z,17.60
2018-05-02T16:57:01.056Z,17.50
2018-05-02T16:59:28.856Z,17.50
2018-05-02T17:01:55.501Z,17.40
2018-05-02T17:04:22.337Z,17.40
2018-05-02T17:06:48.939Z,17.30
2018-05-02T17:09:15.609Z,17.30
2018-05-02T17:11:42.298Z,17.20
2018-05-02T17:14:08.948Z,17.20
2018-05-02T17:16:35.751Z,17.10
2018-05-02T17:19:02.464Z,17.00
2018-05-02T17:21:29.131Z,16.90
2018-05-02T17:23:55.821Z,16.90
2018-05-02T17:26:23.226Z,16.80
2018-05-02T17:28:50.013Z,16.80
2018-05-02T17:31:17.399Z,16.70
2018-05-02T17:33:44.017Z,16.70
2018-05-02T17:36:11.177Z,16.70
2018-05-02T17:38:38.737Z,16.50
2018-05-02T17:41:05.887Z,16.50
2018-05-02T17:43:33.515Z,16.30
2018-05-02T17:46:00.150Z,16.30
2018-05-02T17:48:26.895Z,16.20
2018-05-02T17:50:54.290Z,15.90
2018-05-02T17:53:20.950Z,15.90
2018-05-02T17:55:47.735Z,15.90
2018-05-02T17:58:14.455Z,15.80
2018-05-02T18:00:41.588Z,15.70
2018-05-02T18:03:08.284Z,15.60
2018-05-02T18:05:35.144Z,15.60
2018-05-02T18:08:01.874Z,15.50
2018-05-02T18:10:28.911Z,15.40
2018-05-02T18:12:55.586Z,15.40
2018-05-02T18:15:22.710Z,15.30
2018-05-02T18:17:49.422Z,15.20
2018-05-02T18:20:16.838Z,15.10
2018-05-02T18:22:43.563Z,15.10
2018-05-02T18:25:10.206Z,14.90
2018-05-02T18:27:36.843Z,14.90
2018-05-02T18:30:03.538Z,14.80
2018-05-02T18:32:30.216Z,14.70
2018-05-02T18:34:56.902Z,14.70
2018-05-02T18:37:24.368Z,14.50
2018-05-02T18:39:51.082Z,14.50
2018-05-02T18:42:17.783Z,14.40
2018-05-02T18:44:44.465Z,14.30
2018-05-02T18:47:11.982Z,14.10
2018-05-02T18:49:38.644Z,14.10
2018-05-02T18:52:05.339Z,14.00
2018-05-02T18:54:32.179Z,14.00
2018-05-02T18:56:58.917Z,13.90
2018-05-02T18:59:25.610Z,13.80
2018-05-02T19:01:52.372Z,13.70
2018-05-02T19:04:19.866Z,13.60
2018-05-02T19:06:46.598Z,13.60
2018-05-02T19:09:13.237Z,13.50
2018-05-02T19:11:39.901Z,13.50
2018-05-02T19:14:06.568Z,13.40
2018-05-02T19:16:33.995Z,13.20
2018-05-02T19:19:06.746Z,13.20
2018-05-02T19:21:33.430Z,13.10
2018-05-02T19:24:00.141Z,13.00
2018-05-02T19:26:33.650Z,12.90
2018-05-02T19:29:00.306Z,12.90
2018-05-02T19:31:33.222Z,12.80
2018-05-02T19:34:00.636Z,12.60
2018-05-02T19:36:27.305Z,12.60
2018-05-02T19:38:53.961Z,12.50
2018-05-02T19:44:02.286Z,12.20
2018-05-02T19:46:29.718Z,12.00
2018-05-02T19:48:56.394Z,12.00
2018-05-02T19:51:29.053Z,11.90
2018-05-02T19:53:55.759Z,11.80
2018-05-02T19:56:22.422Z,11.70
2018-05-02T19:58:49.830Z,11.40
2018-05-02T20:01:22.593Z,11.40
2018-05-02T20:03:49.226Z,11.30
2018-05-02T20:06:15.978Z,11.10
2018-05-02T20:08:48.803Z,11.00
2018-05-02T20:11:21.563Z,10.90
2018-05-02T20:13:56.519Z,10.80
2018-05-02T20:16:23.193Z,10.70
2018-05-02T20:18:49.916Z,10.60
2018-05-02T20:21:17.323Z,10.50
2018-05-02T20:23:44.019Z,10.50
2018-05-02T20:26:10.750Z,10.40
2018-05-02T20:28:37.464Z,10.40
2018-05-02T20:31:04.179Z,10.30
2018-05-02T20:33:30.994Z,10.30
2018-05-02T20:35:57.713Z,10.30
2018-05-02T20:38:24.419Z,10.20
2018-05-02T20:40:51.088Z,10.20
2018-05-02T20:43:18.477Z,10.10
2018-05-02T20:45:45.171Z,10.10
2018-05-02T20:48:12.661Z,10.00
2018-05-02T20:50:39.328Z,10.00
2018-05-02T20:53:06.045Z,10.00
2018-05-02T20:55:32.763Z,9.90
2018-05-02T20:57:59.866Z,9.90
2018-05-02T21:00:26.562Z,9.80
2018-05-02T21:02:53.279Z,9.80
2018-05-02T21:05:20.723Z,9.80
2018-05-02T21:07:47.388Z,9.70
2018-05-02T21:10:14.100Z,9.70
2018-05-02T21:12:40.751Z,9.70
2018-05-02T21:15:07.419Z,9.70
2018-05-02T21:17:34.159Z,9.70
2018-05-02T21:20:00.837Z,9.60
2018-05-02T21:22:27.639Z,9.60
2018-05-02T21:24:54.336Z,9.60
2018-05-02T21:27:21.000Z,9.50
2018-05-02T21:29:48.443Z,9.40
2018-05-02T21:32:16.033Z,9.40
2018-05-02T21:34:42.744Z,9.40
2018-05-02T21:37:10.174Z,9.30
2018-05-02T21:39:36.940Z,9.20
2018-05-02T21:42:04.366Z,9.10
2018-05-02T21:44:30.945Z,9.10
2018-05-02T21:46:57.632Z,9.10
2018-05-02T21:49:24.407Z,9.00
2018-05-02T21:51:51.837Z,8.90
2018-05-02T21:54:18.541Z,8.90
2018-05-02T21:56:45.348Z,8.80
2018-05-02T21:59:12.770Z,8.70
2018-05-02T22:01:39.452Z,8.70
2018-05-02T22:04:06.289Z,8.70
2018-05-02T22:06:32.994Z,8.60
2018-05-02T22:08:59.795Z,8.50
2018-05-02T22:11:26.470Z,8.50
2018-05-02T22:13:53.241Z,8.40
2018-05-02T22:16:20.659Z,8.30
2018-05-02T22:18:47.445Z,8.30
2018-05-02T22:21:14.098Z,8.30
2018-05-02T22:23:40.908Z,8.30
2018-05-02T22:26:08.312Z,8.20
2018-05-02T22:28:35.027Z,8.20
2018-05-02T22:31:02.212Z,8.20
2018-05-02T22:33:28.911Z,8.20
2018-05-02T22:35:56.362Z,8.20
2018-05-02T22:38:23.810Z,8.20
2018-05-02T22:40:50.522Z,8.20
2018-05-02T22:43:17.203Z,8.20
2018-05-02T22:45:43.870Z,8.20
2018-05-02T22:48:10.523Z,8.30
2018-05-02T22:50:37.172Z,8.30
2018-05-02T22:53:03.847Z,8.30
2018-05-02T22:55:31.258Z,8.30
2018-05-02T22:57:57.970Z,8.30
2018-05-02T23:00:24.655Z,8.30
2018-05-02T23:02:51.363Z,8.30
2018-05-02T23:05:18.464Z,8.30
2018-05-02T23:07:45.845Z,8.30
2018-05-02T23:10:12.523Z,8.30
2018-05-02T23:12:39.198Z,8.30
2018-05-02T23:15:06.584Z,8.20
2018-05-02T23:17:33.646Z,8.20
2018-05-02T23:20:00.287Z,8.20
2018-05-02T23:22:26.936Z,8.20
2018-05-02T23:24:54.427Z,8.20
2018-05-02T23:27:21.893Z,8.20
2018-05-02T23:29:49.343Z,8.10
2018-05-02T23:32:16.222Z,8.10
2018-05-02T23:34:42.915Z,8.10
2018-05-02T23:37:09.582Z,8.10
2018-05-02T23:39:36.339Z,8.10
2018-05-02T23:42:04.562Z,8.10
2018-05-02T23:44:31.256Z,8.10
2018-05-02T23:46:57.915Z,8.10
2018-05-02T23:49:24.606Z,8.10
2018-05-02T23:51:52.057Z,8.10
2018-05-02T23:54:19.459Z,8.00
2018-05-02T23:56:46.281Z,8.00
2018-05-02T23:59:12.912Z,8.00
